Delray Beach, FL

4:25 PM EDT on October 21, 2014 (GMT -0400)
Palm Beach International | Change Station
CLOSE
Current Station
Airport
Location: West Palm Beach,
Elevation: 20 ft
Nearby Weather Stations

Elev 20 ft 26.68 °N, 80.10 °W | Updated 32 minutes ago

Rain
Rain
70 °F
Feels Like 70 °F
N
6
Wind Variable Wind from North

Today
High -- | Low -- °F
--% Chance of Precip.
Yesterday
High -- | Low -- °F
Precip. -- in
7:22 AM 6:46 PM
Waning Crescent, 4% visible
Pressure 29.93 in
Visibility 0.2 miles
Clouds Scattered Clouds 800 ft
Mostly Cloudy 2300 ft
Overcast 3300 ft
Dew Point 70 °F
Humidity 100%
Rainfall 2.27 in
Snow Depth Not available.
UV 2 out of 12
Pollen 3.20 out of 12
Ozone Good
PM2.5 Good
Flu Activity Local Activity
METAR KPBI 211953Z 01005KT 1/4SM R10L/4500VP6000FT +TSRA FG SCT008 BKN023CB OVC033 21/21 A2993 RMK AO2 SLP134 OCNL LTGICCC OHD-ALQDS TS OHD-ALQDS MOV E P0046 T02110211

More Conditions Fewer Conditions

Pressure 29.93 in
Visibility 0.2 miles
Clouds Scattered Clouds 800 ft
Mostly Cloudy 2300 ft
Overcast 3300 ft
Dew Point 70 °F
Humidity 100%
Rainfall 2.27 in
Snow Depth Not available.
UV 2 out of 12
Pollen 3.20 out of 12
Ozone Good
PM2.5 Good
Flu Activity Local Activity
METAR KPBI 211953Z 01005KT 1/4SM R10L/4500VP6000FT +TSRA FG SCT008 BKN023CB OVC033 21/21 A2993 RMK AO2 SLP134 OCNL LTGICCC OHD-ALQDS TS OHD-ALQDS MOV E P0046 T02110211

More Conditions Fewer Conditions

10-Day Weather Forecast

Almanac

Astronomy

Oct. 21, 2014 Rise Set
Actual Time 7:22 AM EDT 6:46 PM EDT
Civil Twilight 6:59 AM EDT 7:10 PM EDT
Nautical Twilight 6:32 AM EDT 7:37 PM EDT
Astronomical Twilight 6:05 AM EDT 8:04 PM EDT
Moon 5:18 AM EDT 5:29 PM EDT
Length of Visible Light 12h 10m
Length of Day
11h 23m
Tomorrow will be 1m 28s shorter.
Waning Crescent, 4% of the Moon is Illuminated
Today
Waning Crescent
Oct 23
New
Oct 30
First Quarter
Nov 6
Full
Nov 14
Last Quarter

Today's Extremes

State Highs State Lows

Community

WunderPhotos

Upload Photos

1,763,766 photos uploaded!

Nearby

Air Quality

  Air Quality AQ Index Pollutant
Yesterday Good
PM2.5
Yesterday Good
OZONE
Current Good
PM2.5
Current Good
OZONE
Tuesday Good
OZONE
Tuesday Good
PM2.5
Wednesday Good
OZONE
Wednesday Good
PM2.5
Thursday Good
OZONE
Thursday Good
PM2.5

Snow Depth

Station Depth Elevation
No new snow has been reported.

Earthquake Activity

City Distance Mag. Time & Date
No recent earthquake activity has been reported nearby.
Minimum magnitude displayed is 2.5.

Coastal Water Temperatures

Place Temperature
Lake Worth, FL 82.0 °F
Virginia Key, FL 81.0 °F

Nearby Weather Stations